createdAt,value
2018-12-07T00:01:28.517Z,11.84
2018-12-07T00:03:58.065Z,11.76
2018-12-07T00:06:28.467Z,11.79
2018-12-07T00:08:58.358Z,12.09
2018-12-07T00:11:26.900Z,11.93
2018-12-07T00:13:55.944Z,11.74
2018-12-07T00:16:24.417Z,11.71
2018-12-07T00:18:53.962Z,11.70
2018-12-07T00:21:23.984Z,11.73
2018-12-07T00:23:53.155Z,11.81
2018-12-07T00:26:23.795Z,11.95
2018-12-07T00:28:52.755Z,11.98
2018-12-07T00:31:22.940Z,12.00
2018-12-07T00:33:52.096Z,11.95
2018-12-07T00:36:22.711Z,12.00
2018-12-07T00:38:51.640Z,11.73
2018-12-07T00:41:21.246Z,11.73
2018-12-07T00:43:50.302Z,12.03
2018-12-07T00:46:21.123Z,11.96
2018-12-07T00:48:49.711Z,11.89
2018-12-07T00:51:18.851Z,11.91
2018-12-07T00:53:48.571Z,9.74
2018-12-07T00:56:18.447Z,11.70
2018-12-07T00:58:48.381Z,11.81
2018-12-07T01:01:20.032Z,11.84
2018-12-07T01:03:48.902Z,11.89
2018-12-07T01:06:19.056Z,11.81
2018-12-07T01:08:49.237Z,11.78
2018-12-07T01:11:19.282Z,11.94
2018-12-07T01:13:48.954Z,11.82
2018-12-07T01:16:21.321Z,11.82
2018-12-07T01:18:50.579Z,12.03
2018-12-07T01:21:20.540Z,12.02
2018-12-07T01:23:49.367Z,11.99
2018-12-07T01:26:19.327Z,12.33
2018-12-07T01:28:50.353Z,12.07
2018-12-07T01:31:19.323Z,11.94
2018-12-07T01:33:48.810Z,11.71
2018-12-07T01:36:17.576Z,10.83
2018-12-07T01:38:47.036Z,11.94
2018-12-07T01:41:16.637Z,12.19
2018-12-07T01:43:45.818Z,12.28
2018-12-07T01:46:16.124Z,11.42
2018-12-07T01:48:46.461Z,12.17
2018-12-07T01:51:15.043Z,11.82
2018-12-07T01:53:45.008Z,11.57
2018-12-07T01:56:17.496Z,11.95
2018-12-07T01:58:47.616Z,12.12
2018-12-07T02:01:16.986Z,12.53
2018-12-07T02:03:48.023Z,12.25
2018-12-07T02:06:17.712Z,12.20
2018-12-07T02:08:46.228Z,11.82
2018-12-07T02:11:15.992Z,11.94
2018-12-07T02:13:47.891Z,11.98
2018-12-07T02:16:16.919Z,11.97
2018-12-07T02:18:46.727Z,12.08
2018-12-07T02:21:16.337Z,12.04
2018-12-07T02:23:45.733Z,12.31
2018-12-07T02:26:19.239Z,12.20
2018-12-07T02:28:48.348Z,12.44
2018-12-07T02:31:17.396Z,12.51
2018-12-07T02:33:47.029Z,12.55
2018-12-07T02:36:17.030Z,12.59
2018-12-07T02:38:48.563Z,12.39
2018-12-07T02:41:19.220Z,12.30
2018-12-07T02:43:49.739Z,12.76
2018-12-07T02:46:19.282Z,12.94
2018-12-07T02:48:50.794Z,12.92
2018-12-07T02:51:19.275Z,12.93
2018-12-07T02:53:49.834Z,13.29
2018-12-07T02:56:18.991Z,13.42
2018-12-07T02:58:48.964Z,13.66
2018-12-07T03:01:18.066Z,13.52
2018-12-07T03:03:48.070Z,13.36
2018-12-07T03:06:16.627Z,12.30
2018-12-07T03:08:46.531Z,12.90
2018-12-07T03:11:16.059Z,13.04
2018-12-07T03:13:45.374Z,12.99
2018-12-07T03:16:15.515Z,12.97
2018-12-07T03:18:45.044Z,12.70
2018-12-07T03:21:16.435Z,13.03
2018-12-07T03:23:45.423Z,13.08
2018-12-07T03:26:17.815Z,13.26
2018-12-07T03:28:47.875Z,12.79
2018-12-07T03:31:20.376Z,12.78
2018-12-07T03:33:51.411Z,12.56
2018-12-07T03:36:21.151Z,12.72
2018-12-07T03:38:51.499Z,8.76
2018-12-07T03:41:20.516Z,12.53
2018-12-07T03:43:50.100Z,12.62
2018-12-07T03:46:18.619Z,13.17
2018-12-07T03:48:48.971Z,13.11
2018-12-07T03:51:20.827Z,13.47
2018-12-07T03:53:50.481Z,13.31
2018-12-07T03:56:20.038Z,12.98
2018-12-07T03:58:52.206Z,12.75
2018-12-07T04:01:22.304Z,12.63
2018-12-07T04:03:53.134Z,12.67
2018-12-07T04:06:22.383Z,12.55
2018-12-07T04:08:51.299Z,12.40
2018-12-07T04:11:21.051Z,12.63
2018-12-07T04:13:49.565Z,12.48
2018-12-07T04:16:18.841Z,12.47
2018-12-07T04:18:48.638Z,12.49
2018-12-07T04:21:18.499Z,12.26
2018-12-07T04:23:48.535Z,12.58
2018-12-07T04:26:17.758Z,12.65
2018-12-07T04:28:46.974Z,12.77
2018-12-07T04:31:16.417Z,12.91
2018-12-07T04:33:47.826Z,12.89
2018-12-07T04:36:18.447Z,12.94
2018-12-07T04:38:47.738Z,12.66
2018-12-07T04:41:17.813Z,12.75
2018-12-07T04:43:46.334Z,12.74
2018-12-07T04:46:16.166Z,12.70
2018-12-07T04:48:47.378Z,12.70
2018-12-07T04:51:16.771Z,12.49
2018-12-07T04:53:47.283Z,12.71
2018-12-07T04:56:16.622Z,12.59
2018-12-07T04:58:45.923Z,12.67
2018-12-07T05:01:14.783Z,12.65
2018-12-07T05:03:45.495Z,12.52
2018-12-07T05:06:14.806Z,12.60
2018-12-07T05:08:47.121Z,12.59
2018-12-07T05:11:16.384Z,12.77
2018-12-07T05:13:47.770Z,12.51
2018-12-07T05:16:17.909Z,12.59
2018-12-07T05:18:47.414Z,12.74
2018-12-07T05:24:29.683Z,12.74
2018-12-07T05:27:00.455Z,12.64
2018-12-07T05:29:31.113Z,12.86
2018-12-07T05:32:00.797Z,12.64
2018-12-07T05:34:30.404Z,12.80
2018-12-07T05:37:00.954Z,12.68
2018-12-07T05:39:29.804Z,12.56
2018-12-07T05:42:00.768Z,12.77
2018-12-07T05:44:30.595Z,12.62
2018-12-07T05:47:00.471Z,12.71
2018-12-07T05:49:28.951Z,12.64
2018-12-07T05:51:58.426Z,12.84
2018-12-07T05:54:28.231Z,13.05
2018-12-07T05:56:59.911Z,12.55
2018-12-07T05:59:29.958Z,12.74
2018-12-07T06:02:01.495Z,13.15
2018-12-07T06:04:30.176Z,12.80
2018-12-07T06:07:00.198Z,12.96
2018-12-07T06:09:30.429Z,13.21
2018-12-07T06:11:59.965Z,13.17
2018-12-07T06:14:31.333Z,13.35
2018-12-07T06:17:00.970Z,13.46
2018-12-07T06:19:31.040Z,13.22
2018-12-07T06:22:01.515Z,13.30
2018-12-07T06:24:30.809Z,13.16
2018-12-07T06:26:59.914Z,13.27
2018-12-07T06:29:30.278Z,13.66
2018-12-07T06:32:00.349Z,13.11
2018-12-07T06:34:29.418Z,13.51
2018-12-07T06:36:58.951Z,13.16
2018-12-07T06:39:28.707Z,13.49
2018-12-07T06:41:59.343Z,13.38
2018-12-07T06:44:31.682Z,13.39
2018-12-07T06:47:01.711Z,13.36
2018-12-07T06:49:32.240Z,13.25
2018-12-07T06:52:02.156Z,13.05
2018-12-07T06:54:32.600Z,13.07
2018-12-07T06:57:03.390Z,12.96
2018-12-07T06:59:36.003Z,12.78
2018-12-07T07:02:05.127Z,13.31
2018-12-07T07:04:35.732Z,12.91
2018-12-07T07:07:05.377Z,12.81
2018-12-07T07:09:34.577Z,12.60
2018-12-07T07:12:04.884Z,12.95
2018-12-07T07:14:35.246Z,12.78
2018-12-07T07:17:05.130Z,12.99
2018-12-07T07:19:34.001Z,12.54
2018-12-07T07:22:04.552Z,12.64
2018-12-07T07:24:33.962Z,12.61
2018-12-07T07:33:57.827Z,12.66
2018-12-07T07:36:27.104Z,12.91
2018-12-07T07:38:59.042Z,12.47
2018-12-07T07:41:29.055Z,12.42
2018-12-07T07:43:58.160Z,12.37
2018-12-07T07:46:27.245Z,12.47
2018-12-07T07:48:57.268Z,12.35
2018-12-07T07:51:26.403Z,12.22
2018-12-07T07:53:55.620Z,12.25
2018-12-07T07:56:24.792Z,12.29
2018-12-07T07:58:54.274Z,12.09
2018-12-07T08:01:25.207Z,12.05
2018-12-07T08:03:55.362Z,12.07
2018-12-07T08:06:31.634Z,12.05
2018-12-07T08:09:02.517Z,12.35
2018-12-07T08:11:33.270Z,12.30
2018-12-07T08:14:36.354Z,12.33
2018-12-07T08:17:05.538Z,12.16
2018-12-07T08:19:37.051Z,12.33
2018-12-07T08:22:08.062Z,12.28
2018-12-07T08:24:38.207Z,12.21
2018-12-07T08:27:07.456Z,11.98
2018-12-07T08:29:37.318Z,11.88
2018-12-07T08:32:07.008Z,11.87
2018-12-07T08:34:37.872Z,11.90
2018-12-07T08:37:07.214Z,12.05
2018-12-07T08:39:37.986Z,12.01
2018-12-07T08:42:07.415Z,12.02
2018-12-07T08:44:36.543Z,11.94
2018-12-07T08:47:06.923Z,11.92
2018-12-07T08:49:41.538Z,11.90
2018-12-07T08:52:11.678Z,11.82
2018-12-07T08:54:41.063Z,11.83
2018-12-07T08:57:12.715Z,11.83
2018-12-07T08:59:42.819Z,11.73
2018-12-07T09:02:11.715Z,11.79
2018-12-07T09:04:41.344Z,11.85
2018-12-07T09:07:11.394Z,11.94
2018-12-07T09:09:41.367Z,11.80
2018-12-07T09:12:21.210Z,11.81
2018-12-07T09:14:50.601Z,11.87
2018-12-07T09:17:20.134Z,11.77
2018-12-07T09:19:50.234Z,11.86
2018-12-07T09:22:22.193Z,11.69
2018-12-07T09:24:52.099Z,11.55
2018-12-07T09:27:22.033Z,11.82
2018-12-07T09:29:51.717Z,11.91
2018-12-07T09:32:21.079Z,11.97
2018-12-07T09:34:51.338Z,11.77
2018-12-07T09:37:20.822Z,12.17
2018-12-07T09:39:50.513Z,12.01
2018-12-07T09:42:19.461Z,11.96
2018-12-07T09:44:50.395Z,12.09
2018-12-07T09:47:21.081Z,11.91
2018-12-07T09:49:53.107Z,12.10
2018-12-07T09:52:24.988Z,12.01
2018-12-07T09:54:54.732Z,11.94
2018-12-07T09:57:25.930Z,12.22
2018-12-07T09:59:55.512Z,12.13
2018-12-07T10:02:25.386Z,12.05
2018-12-07T10:04:57.611Z,12.07
2018-12-07T10:07:27.976Z,12.11
2018-12-07T10:09:57.509Z,12.49
2018-12-07T10:12:27.635Z,12.27
2018-12-07T10:15:04.041Z,12.55
2018-12-07T10:17:34.776Z,12.78
2018-12-07T10:20:04.091Z,12.23
2018-12-07T10:22:33.873Z,12.12
2018-12-07T10:25:03.909Z,12.23
2018-12-07T10:27:33.531Z,12.21
2018-12-07T10:30:03.148Z,12.13
2018-12-07T10:32:33.958Z,12.55
2018-12-07T10:35:07.248Z,12.32
2018-12-07T10:39:43.308Z,12.34
2018-12-07T10:42:14.912Z,12.42
2018-12-07T10:44:44.955Z,12.67
2018-12-07T10:47:14.986Z,12.33
2018-12-07T10:49:44.731Z,12.48
2018-12-07T10:52:16.871Z,12.60
2018-12-07T10:54:47.413Z,12.53
2018-12-07T10:57:16.199Z,12.70
2018-12-07T10:59:47.415Z,12.70
2018-12-07T11:02:21.759Z,12.60
2018-12-07T11:04:55.532Z,12.56
2018-12-07T11:09:32.313Z,12.59
2018-12-07T11:12:06.497Z,12.80
2018-12-07T11:14:41.307Z,12.84
2018-12-07T11:17:15.967Z,12.88
2018-12-07T11:19:49.858Z,12.73
2018-12-07T11:22:24.453Z,12.91
2018-12-07T11:27:01.611Z,12.84
2018-12-07T11:29:35.730Z,12.88
2018-12-07T11:32:11.438Z,12.83
2018-12-07T11:34:46.428Z,12.93
2018-12-07T11:37:16.697Z,13.24
2018-12-07T11:39:46.276Z,12.96
2018-12-07T11:42:16.825Z,13.10
2018-12-07T11:44:47.402Z,12.98
2018-12-07T11:47:17.020Z,13.14
2018-12-07T11:49:46.990Z,13.32
2018-12-07T11:52:18.271Z,13.23
2018-12-07T11:54:48.872Z,13.34
2018-12-07T11:57:18.345Z,13.19
2018-12-07T11:59:47.375Z,12.94
2018-12-07T12:02:16.527Z,13.09
2018-12-07T12:04:46.587Z,12.63
2018-12-07T12:07:15.643Z,12.94
2018-12-07T12:09:46.476Z,12.99
2018-12-07T12:12:16.131Z,12.86
2018-12-07T12:14:44.757Z,13.09
2018-12-07T12:17:15.261Z,13.14
2018-12-07T12:19:44.351Z,12.84
2018-12-07T12:22:14.823Z,12.91
2018-12-07T12:24:44.776Z,12.87
2018-12-07T12:27:15.801Z,12.92
2018-12-07T12:29:46.696Z,12.99
2018-12-07T12:32:15.663Z,12.84
2018-12-07T12:34:45.937Z,12.77
2018-12-07T12:37:18.624Z,12.62
2018-12-07T12:39:47.495Z,12.92
2018-12-07T12:42:17.518Z,12.81
2018-12-07T12:44:47.415Z,12.81
2018-12-07T12:47:15.967Z,13.08
2018-12-07T12:49:45.889Z,12.96
2018-12-07T12:52:17.613Z,13.90
2018-12-07T12:54:48.276Z,13.26
2018-12-07T12:57:17.996Z,13.54
2018-12-07T12:59:47.413Z,13.58
2018-12-07T13:02:17.273Z,12.92
2018-12-07T13:04:47.126Z,13.30
2018-12-07T13:07:17.085Z,13.29
2018-12-07T13:09:47.259Z,12.98
2018-12-07T13:12:17.091Z,12.65
2018-12-07T13:14:50.084Z,12.39
2018-12-07T13:17:19.775Z,12.35
2018-12-07T13:19:49.346Z,12.12
2018-12-07T13:22:19.449Z,12.28
2018-12-07T13:24:49.529Z,12.32
2018-12-07T13:27:19.173Z,12.19
2018-12-07T13:29:49.399Z,12.27
2018-12-07T13:32:19.084Z,12.05
2018-12-07T13:34:49.202Z,11.99
2018-12-07T13:37:19.715Z,12.22
2018-12-07T13:39:49.266Z,12.03
2018-12-07T13:42:19.293Z,11.85
2018-12-07T13:44:49.519Z,12.19
2018-12-07T13:47:19.438Z,12.14
2018-12-07T13:49:53.726Z,12.68
2018-12-07T13:52:23.977Z,12.86
2018-12-07T13:54:53.782Z,12.65
2018-12-07T13:57:24.332Z,12.11
2018-12-07T13:59:53.837Z,12.34
2018-12-07T14:02:25.361Z,12.29
2018-12-07T14:04:56.246Z,12.28
2018-12-07T14:07:25.637Z,12.40
2018-12-07T14:09:55.465Z,12.06
2018-12-07T14:12:24.338Z,11.96
2018-12-07T14:14:53.162Z,11.91
2018-12-07T14:17:23.840Z,12.07
2018-12-07T14:19:53.808Z,12.07
2018-12-07T14:22:24.800Z,11.92
2018-12-07T14:24:54.936Z,11.84
2018-12-07T14:27:24.983Z,12.07
2018-12-07T14:29:54.659Z,11.88
2018-12-07T14:32:23.658Z,11.86
2018-12-07T14:34:53.297Z,11.84
2018-12-07T14:37:22.525Z,11.59
2018-12-07T14:39:52.463Z,11.70
2018-12-07T14:42:21.837Z,11.72
2018-12-07T14:44:54.579Z,11.77
2018-12-07T14:47:23.734Z,11.71
2018-12-07T14:49:52.826Z,11.70
2018-12-07T14:54:58.853Z,11.68
2018-12-07T14:57:28.844Z,11.88
2018-12-07T14:59:58.418Z,11.86
2018-12-07T15:02:28.637Z,11.74
2018-12-07T15:04:57.958Z,11.63
2018-12-07T15:07:28.630Z,11.78
2018-12-07T15:09:58.085Z,11.68
2018-12-07T15:12:28.793Z,11.60
2018-12-07T15:14:59.262Z,11.64
2018-12-07T15:17:30.164Z,11.76
2018-12-07T15:20:00.007Z,11.65
2018-12-07T15:22:30.364Z,11.64
2018-12-07T15:24:59.443Z,11.74
2018-12-07T15:27:30.386Z,11.73
2018-12-07T15:29:59.675Z,11.60
2018-12-07T15:32:30.315Z,11.57
2018-12-07T15:35:01.708Z,11.55
2018-12-07T15:37:31.647Z,11.42
2018-12-07T15:40:01.007Z,11.45
2018-12-07T15:42:30.360Z,11.55
2018-12-07T15:44:59.525Z,11.60
2018-12-07T15:47:28.708Z,11.40
2018-12-07T15:49:59.199Z,11.49
2018-12-07T15:52:28.852Z,11.51
2018-12-07T15:54:58.540Z,11.53
2018-12-07T15:57:28.251Z,11.51
2018-12-07T15:59:58.874Z,11.40
2018-12-07T16:02:29.330Z,11.27
2018-12-07T16:04:58.733Z,11.44
2018-12-07T16:07:28.775Z,11.38
2018-12-07T16:09:57.464Z,11.44
2018-12-07T16:12:28.164Z,11.44
2018-12-07T16:14:58.624Z,11.26
2018-12-07T16:17:29.164Z,11.43
2018-12-07T16:19:58.874Z,11.35
2018-12-07T16:22:29.417Z,11.49
2018-12-07T16:24:59.903Z,11.35
2018-12-07T16:27:29.641Z,11.67
2018-12-07T16:29:58.520Z,11.61
2018-12-07T16:32:29.622Z,11.63
2018-12-07T16:35:00.051Z,12.03
2018-12-07T16:37:30.411Z,11.68
2018-12-07T16:39:59.659Z,12.05
2018-12-07T16:42:28.366Z,11.96
2018-12-07T16:44:59.001Z,11.94
2018-12-07T16:47:29.377Z,11.91
2018-12-07T16:49:59.417Z,11.62
2018-12-07T16:52:30.152Z,11.51
2018-12-07T16:55:00.340Z,11.57
2018-12-07T16:57:30.286Z,11.82
2018-12-07T16:59:59.887Z,12.03
2018-12-07T17:02:29.463Z,11.76
2018-12-07T17:04:58.546Z,11.74
2018-12-07T17:07:28.863Z,11.88
2018-12-07T17:10:01.086Z,11.38
2018-12-07T17:12:34.954Z,11.53
2018-12-07T17:15:08.023Z,11.69
2018-12-07T17:17:37.970Z,11.62
2018-12-07T17:20:07.970Z,11.57
2018-12-07T17:22:37.373Z,11.38
2018-12-07T17:25:06.922Z,11.45
2018-12-07T17:27:38.725Z,11.69
2018-12-07T17:30:08.427Z,11.65
2018-12-07T17:32:37.687Z,11.59
2018-12-07T17:35:08.783Z,11.73
2018-12-07T17:37:38.755Z,11.82
2018-12-07T17:40:09.922Z,11.64
2018-12-07T17:42:39.810Z,11.62
2018-12-07T17:45:09.844Z,11.57
2018-12-07T17:47:40.033Z,11.44
2018-12-07T17:50:10.407Z,11.48
2018-12-07T17:52:40.493Z,11.29
2018-12-07T17:55:10.254Z,11.22
2018-12-07T17:57:40.763Z,11.25
2018-12-07T18:00:13.024Z,11.34
2018-12-07T18:02:42.522Z,11.30
2018-12-07T18:05:12.410Z,11.12
2018-12-07T18:07:42.055Z,11.32
2018-12-07T18:10:12.277Z,11.06
2018-12-07T18:12:40.934Z,11.06
2018-12-07T18:15:10.892Z,11.16
2018-12-07T18:17:41.017Z,10.36
2018-12-07T18:20:12.975Z,10.93
2018-12-07T18:22:43.771Z,10.95
2018-12-07T18:25:12.503Z,10.98
2018-12-07T18:27:41.563Z,10.87
2018-12-07T18:30:12.057Z,10.86
2018-12-07T18:32:42.957Z,10.83
2018-12-07T18:35:14.272Z,10.88
2018-12-07T18:37:43.521Z,10.84
2018-12-07T18:40:13.827Z,10.85
2018-12-07T18:42:42.926Z,10.91
2018-12-07T18:45:15.946Z,10.48
2018-12-07T18:47:45.577Z,10.60
2018-12-07T18:50:15.612Z,10.66
2018-12-07T18:52:45.253Z,10.49
2018-12-07T18:55:15.862Z,10.58
2018-12-07T18:57:46.645Z,9.91
2018-12-07T19:00:15.938Z,10.56
2018-12-07T19:02:45.461Z,10.42
2018-12-07T19:05:15.327Z,10.52
2018-12-07T19:07:44.360Z,10.57
2018-12-07T19:10:13.327Z,10.58
2018-12-07T19:12:41.875Z,10.34
2018-12-07T19:15:12.209Z,10.55
2018-12-07T19:17:41.890Z,10.47
2018-12-07T19:20:12.043Z,10.66
2018-12-07T19:22:40.901Z,10.44
2018-12-07T19:25:11.383Z,10.45
2018-12-07T19:27:41.865Z,10.50
2018-12-07T19:30:14.722Z,10.39
2018-12-07T19:32:44.153Z,10.41
2018-12-07T19:35:14.548Z,-0.28
2018-12-07T19:37:43.949Z,10.63
2018-12-07T19:40:14.003Z,10.46
2018-12-07T19:42:44.748Z,10.40
2018-12-07T19:45:13.966Z,10.45
2018-12-07T19:47:43.754Z,10.50
2018-12-07T19:50:14.226Z,10.38
2018-12-07T19:52:44.152Z,10.54
2018-12-07T19:55:15.111Z,10.59
2018-12-07T19:57:44.850Z,10.50
2018-12-07T20:00:22.640Z,10.65
2018-12-07T20:02:53.447Z,10.54
2018-12-07T20:05:23.729Z,10.63
2018-12-07T20:07:55.116Z,10.47
2018-12-07T20:10:24.571Z,10.63
2018-12-07T20:12:54.986Z,9.60
2018-12-07T20:15:26.576Z,9.28
2018-12-07T20:17:57.685Z,8.80
2018-12-07T20:20:27.572Z,8.66
2018-12-07T20:22:56.237Z,8.46
2018-12-07T20:25:26.550Z,8.47
2018-12-07T20:27:56.042Z,8.38
2018-12-07T20:30:26.457Z,8.03
2018-12-07T20:32:57.757Z,8.44
2018-12-07T20:35:28.758Z,8.29
2018-12-07T20:37:58.745Z,8.42
2018-12-07T20:40:28.556Z,8.49
2018-12-07T20:42:58.448Z,8.41
2018-12-07T20:45:27.620Z,8.24
2018-12-07T20:47:57.189Z,8.40
2018-12-07T20:50:26.997Z,8.46
2018-12-07T20:52:57.195Z,8.43
2018-12-07T20:55:28.731Z,8.47
2018-12-07T20:57:58.692Z,8.60
2018-12-07T21:00:30.108Z,8.50
2018-12-07T21:03:01.570Z,8.60
2018-12-07T21:11:07.254Z,8.58
2018-12-07T21:14:41.508Z,8.53
2018-12-07T21:17:21.088Z,8.38
2018-12-07T21:20:04.201Z,8.56
2018-12-07T21:22:34.313Z,8.63
2018-12-07T21:25:04.340Z,8.54
2018-12-07T21:27:36.363Z,8.32
2018-12-07T21:30:21.702Z,8.48
2018-12-07T21:32:51.410Z,8.56
2018-12-07T21:35:21.669Z,8.61
2018-12-07T21:37:51.614Z,8.73
2018-12-07T21:40:27.316Z,8.59
2018-12-07T21:42:57.664Z,8.38
2018-12-07T21:45:28.294Z,8.52
2018-12-07T21:48:32.891Z,8.63
2018-12-07T21:53:17.371Z,8.68
2018-12-07T21:55:48.185Z,8.69
2018-12-07T21:58:17.334Z,8.68
2018-12-07T22:00:46.893Z,8.46
2018-12-07T22:03:16.500Z,8.62
2018-12-07T22:05:45.550Z,8.46
2018-12-07T22:08:14.859Z,8.57
2018-12-07T22:10:45.476Z,8.45
2018-12-07T22:13:15.436Z,8.48
2018-12-07T22:15:46.118Z,8.33
2018-12-07T22:18:16.000Z,8.20
2018-12-07T22:20:45.758Z,8.47
2018-12-07T22:23:14.911Z,8.66
2018-12-07T22:25:45.589Z,8.35
2018-12-07T22:28:17.196Z,8.30
2018-12-07T22:30:47.811Z,8.11
2018-12-07T22:33:17.870Z,8.06
2018-12-07T22:35:47.918Z,8.16
2018-12-07T22:38:17.756Z,7.86
2018-12-07T22:40:47.716Z,8.03
2018-12-07T22:43:19.470Z,8.16
2018-12-07T22:45:48.845Z,8.14
2018-12-07T22:48:19.824Z,8.46
2018-12-07T22:50:49.225Z,8.58
2018-12-07T22:53:20.661Z,8.44
2018-12-07T22:55:50.893Z,8.24
2018-12-07T22:58:21.383Z,8.46
2018-12-07T23:00:52.461Z,8.25
2018-12-07T23:03:22.950Z,8.50
2018-12-07T23:05:52.194Z,8.26
2018-12-07T23:08:21.919Z,8.04
2018-12-07T23:10:51.356Z,8.13
2018-12-07T23:13:25.661Z,8.11
2018-12-07T23:15:53.432Z,8.09
2018-12-07T23:18:22.579Z,8.23
2018-12-07T23:20:53.623Z,8.11
2018-12-07T23:23:23.982Z,8.05
2018-12-07T23:25:53.651Z,8.01
2018-12-07T23:28:22.705Z,8.07
2018-12-07T23:30:53.219Z,7.92
2018-12-07T23:33:23.452Z,7.86
2018-12-07T23:35:53.379Z,8.11
2018-12-07T23:38:26.052Z,8.07
2018-12-07T23:40:56.142Z,7.86
2018-12-07T23:43:25.063Z,7.91
2018-12-07T23:45:54.871Z,8.05
2018-12-07T23:48:24.470Z,7.82
2018-12-07T23:50:53.247Z,8.27
2018-12-07T23:53:22.563Z,7.94
2018-12-07T23:55:52.469Z,7.89
2018-12-07T23:58:22.567Z,7.69
